Time;durP1;ratioP1;P1;durP2;ratioP2;P2;SDS_P1;SDS_P2;PMS_P1;PMS_P2;Temp;Humidity;BMP_temperature;BMP_pressure;BME280_temperature;BME280_humidity;BME280_pressure;Samples;Min_cycle;Max_cycle;Signal;HPM_P1;HPM_P2
2021/06/09 00:01:27;;;;;;;2.13;1.92;;;;;;;18.51;76.49;100194.34;6339243;22;19998;-70
2021/06/09 00:03:52;;;;;;;1.88;1.77;;;;;;;18.52;76.06;100188.28;6338227;22;20007;-71
2021/06/09 00:06:18;;;;;;;1.95;1.85;;;;;;;18.50;75.72;100178.66;6337488;22;20111;-71
2021/06/09 00:08:47;;;;;;;1.83;1.73;;;;;;;18.52;75.20;100188.28;6337486;22;20011;-70
2021/06/09 00:11:18;;;;;;;2.00;1.90;;;;;;;18.53;75.11;100191.91;6337481;22;20018;-71
2021/06/09 00:13:46;;;;;;;2.35;1.95;;;;;;;18.59;75.27;100184.63;6337726;22;20030;-71
2021/06/09 00:16:15;;;;;;;2.20;2.10;;;;;;;18.50;75.81;100187.13;6339332;22;20044;-72
2021/06/09 00:18:42;;;;;;;2.47;1.98;;;;;;;18.50;76.36;100184.31;6339145;22;20007;-71
2021/06/09 00:21:08;;;;;;;2.10;2.00;;;;;;;18.50;76.90;100184.31;6339197;22;20413;-70
2021/06/09 00:23:34;;;;;;;2.55;2.42;;;;;;;18.61;76.10;100182.19;6339549;22;20024;-71
2021/06/09 00:26:09;;;;;;;2.63;2.42;;;;;;;18.52;76.32;100191.09;6340557;22;20010;-71
2021/06/09 00:28:38;;;;;;;2.70;2.47;;;;;;;18.56;76.76;100182.63;6339793;22;20007;-72
2021/06/09 00:31:09;;;;;;;5.97;2.70;;;;;;;18.48;77.87;100176.28;6339193;22;19999;-71
2021/06/09 00:33:36;;;;;;;2.92;2.72;;;;;;;18.42;78.41;100183.56;6340352;22;20003;-71
2021/06/09 00:36:05;;;;;;;4.10;3.00;;;;;;;18.50;78.86;100175.84;6339823;22;20107;-71
2021/06/09 00:38:33;;;;;;;2.90;2.70;;;;;;;18.44;78.70;100171.91;6339015;22;20006;-71
2021/06/09 00:41:01;;;;;;;3.60;2.80;;;;;;;18.45;78.96;100173.50;6339481;22;20030;-71
2021/06/09 00:43:34;;;;;;;3.97;3.00;;;;;;;18.47;79.39;100174.66;6339059;22;20006;-71
2021/06/09 00:46:06;;;;;;;2.88;2.67;;;;;;;18.36;79.41;100170.34;6339426;22;20013;-71
2021/06/09 00:48:39;;;;;;;3.42;3.13;;;;;;;18.37;79.56;100171.94;6340081;22;20010;-73
2021/06/09 00:51:13;;;;;;;3.20;3.00;;;;;;;18.40;79.73;100171.91;6340336;22;20003;-72
2021/06/09 00:53:50;;;;;;;3.13;2.92;;;;;;;18.39;80.30;100153.41;6338950;22;20014;-72
2021/06/09 00:56:21;;;;;;;3.60;3.22;;;;;;;18.36;80.67;100159.06;6340551;22;20030;-73
2021/06/09 00:58:48;;;;;;;5.05;3.10;;;;;;;18.38;80.65;100156.66;6339874;22;20156;-71
2021/06/09 01:01:17;;;;;;;3.13;2.47;;;;;;;18.36;80.29;100157.06;6338950;22;20007;-71
2021/06/09 01:03:46;;;;;;;3.00;2.80;;;;;;;18.52;80.38;100156.50;6338888;22;20086;-72
2021/06/09 01:06:17;;;;;;;2.90;2.70;;;;;;;18.49;79.26;100160.19;6338837;22;20037;-71
2021/06/09 01:08:52;;;;;;;3.00;2.60;;;;;;;18.31;80.95;100158.31;6338825;22;20019;-72
2021/06/09 01:11:24;;;;;;;3.22;2.97;;;;;;;18.27;81.46;100151.13;6339184;22;20011;-72
2021/06/09 01:13:53;;;;;;;4.63;2.97;;;;;;;18.26;81.24;100147.47;6340476;22;20002;-71
2021/06/09 01:16:20;;;;;;;6.15;3.10;;;;;;;18.21;81.80;100147.94;6339129;22;20007;-71
2021/06/09 01:18:52;;;;;;;3.45;3.10;;;;;;;18.28;81.87;100153.53;6339381;22;20010;-72
2021/06/09 01:21:24;;;;;;;3.72;3.28;;;;;;;18.22;82.01;100143.94;6338336;22;20015;-73
2021/06/09 01:23:53;;;;;;;3.63;3.20;;;;;;;18.24;82.29;100147.13;6338684;22;20055;-72
2021/06/09 01:26:24;;;;;;;3.92;3.63;;;;;;;18.24;82.41;100146.31;6338526;22;20037;-72
2021/06/09 01:28:57;;;;;;;3.50;3.13;;;;;;;18.19;82.26;100144.75;6313919;22;20018;-70
2021/06/09 01:31:24;;;;;;;4.35;3.95;;;;;;;18.15;82.52;100132.72;6338688;22;20040;-73
2021/06/09 01:33:50;;;;;;;3.85;3.55;;;;;;;18.14;82.49;100135.94;6338586;22;20426;-72
2021/06/09 01:36:18;;;;;;;4.30;3.78;;;;;;;18.25;81.79;100134.63;6338579;22;20014;-71
2021/06/09 01:38:50;;;;;;;3.90;3.42;;;;;;;18.19;81.18;100143.94;6339166;22;20010;-71
2021/06/09 01:41:22;;;;;;;4.65;4.10;;;;;;;18.13;82.40;100139.97;6338896;22;20446;-71
2021/06/09 01:43:52;;;;;;;4.22;3.85;;;;;;;18.11;81.91;100142.41;6338507;22;20009;-71
2021/06/09 01:46:18;;;;;;;4.07;3.78;;;;;;;18.12;82.36;100141.19;6338850;22;20034;-72
2021/06/09 01:48:43;;;;;;;4.07;3.78;;;;;;;18.06;82.40;100138.81;6338455;22;20006;-72
2021/06/09 01:51:12;;;;;;;4.40;4.10;;;;;;;18.03;82.68;100136.03;6338790;22;20056;-72
2021/06/09 01:53:43;;;;;;;6.90;4.25;;;;;;;18.13;83.37;100135.16;6338793;22;20449;-71
2021/06/09 01:56:11;;;;;;;5.07;4.57;;;;;;;18.17;83.16;100141.56;6338822;22;20093;-72
2021/06/09 01:58:43;;;;;;;5.95;5.00;;;;;;;17.97;83.24;100132.88;6339058;22;20030;-72
2021/06/09 02:01:12;;;;;;;5.82;5.18;;;;;;;17.93;84.44;100136.91;6338721;22;20077;-72
2021/06/09 02:03:38;;;;;;;6.35;5.75;;;;;;;17.94;84.59;100135.69;6339066;22;20115;-71
2021/06/09 02:06:06;;;;;;;6.97;6.38;;;;;;;17.87;84.45;100138.56;6338381;22;20085;-71
2021/06/09 02:08:40;;;;;;;5.40;4.90;;;;;;;17.95;84.87;100140.09;6338315;22;20009;-71
2021/06/09 02:11:11;;;;;;;5.25;4.78;;;;;;;17.96;85.07;100133.28;6338306;22;20017;-72
2021/06/09 02:13:40;;;;;;;7.38;6.70;;;;;;;17.90;84.87;100137.75;6339031;22;20109;-72
2021/06/09 02:16:11;;;;;;;7.95;7.15;;;;;;;17.87;85.53;100132.94;6339924;22;20003;-71
2021/06/09 02:18:39;;;;;;;11.43;10.18;;;;;;;17.89;86.21;100141.78;6338865;22;20007;-70
2021/06/09 02:21:09;;;;;;;12.70;11.45;;;;;;;17.88;86.34;100135.34;6338089;22;20085;-70
2021/06/09 02:23:46;;;;;;;13.77;12.38;;;;;;;17.86;86.61;100134.16;6338181;22;20007;-72
2021/06/09 02:26:18;;;;;;;14.70;13.07;;;;;;;17.94;87.22;100132.88;6338262;22;20064;-73
2021/06/09 02:28:46;;;;;;;18.52;13.18;;;;;;;17.73;88.15;100145.91;6337880;22;20007;-75
2021/06/09 02:31:16;;;;;;;13.38;11.93;;;;;;;17.68;88.50;100148.31;6338595;22;20009;-74
2021/06/09 02:33:44;;;;;;;19.17;13.63;;;;;;;17.51;89.50;100152.84;6338157;22;20007;-75
2021/06/09 02:36:14;;;;;;;14.02;12.43;;;;;;;17.50;89.68;100154.84;6337972;22;20044;-74
2021/06/09 02:38:47;;;;;;;16.67;14.35;;;;;;;17.33;90.43;100149.34;6338698;22;20092;-74
2021/06/09 02:41:12;;;;;;;16.92;13.13;;;;;;;17.44;90.41;100147.28;6338487;22;20441;-75
2021/06/09 02:43:41;;;;;;;15.73;13.23;;;;;;;17.36;90.76;100154.94;6338068;22;20007;-74
2021/06/09 02:46:12;;;;;;;15.57;13.70;;;;;;;17.50;90.89;100159.69;6338433;22;20003;-72
2021/06/09 02:48:46;;;;;;;16.33;13.15;;;;;;;17.52;90.50;100154.44;6338049;22;20030;-74
2021/06/09 02:51:21;;;;;;;14.90;12.63;;;;;;;17.57;89.86;100147.59;6338079;22;19998;-72
2021/06/09 02:53:52;;;;;;;14.25;12.63;;;;;;;17.57;89.66;100148.38;6338420;22;20068;-73
2021/06/09 02:57:04;;;;;;;16.27;12.73;;;;;;;17.64;89.28;100156.78;6338753;22;20288;-73
2021/06/09 03:00:05;;;;;;;12.82;11.52;;;;;;;17.60;90.06;100147.56;6325160;22;20339;-72
2021/06/09 03:02:51;;;;;;;16.10;13.50;;;;;;;17.59;90.45;100156.44;6337996;22;20007;-75
2021/06/09 03:05:40;;;;;;;15.65;12.05;;;;;;;17.68;90.73;100151.13;6337635;22;20017;-75
2021/06/09 03:08:13;;;;;;;14.75;11.95;;;;;;;17.68;90.77;100159.56;6338257;22;20015;-72
2021/06/09 03:10:56;;;;;;;;;;;;;;;17.72;90.71;100161.19;6338322;22;20010;-73
2021/06/09 03:16:29;;;;;;;13.43;11.98;;;;;;;17.73;90.63;100145.09;6339119;22;20064;-73
2021/06/09 03:19:06;;;;;;;14.70;11.95;;;;;;;17.83;89.96;100143.44;6337734;22;19999;-72
2021/06/09 03:21:56;;;;;;;15.35;11.93;;;;;;;17.83;89.88;100149.06;6339285;22;20308;-73
2021/06/09 03:24:38;;;;;;;13.40;10.85;;;;;;;17.83;89.39;100137.78;6312072;22;20325;-71
2021/06/09 03:27:31;;;;;;;14.27;11.45;;;;;;;17.85;89.66;100136.19;6312356;22;20446;-72
2021/06/09 03:30:02;;;;;;;12.80;10.65;;;;;;;17.70;89.37;100127.00;6312399;22;20038;-72
2021/06/09 03:32:38;;;;;;;12.57;11.02;;;;;;;17.87;89.04;100135.75;6312400;22;20010;-73
2021/06/09 03:35:14;;;;;;;14.65;11.27;;;;;;;17.92;88.78;100144.56;6312026;22;20322;-72
2021/06/09 03:37:44;;;;;;;11.80;10.65;;;;;;;17.91;88.45;100140.16;6311522;22;20064;-73
2021/06/09 03:40:22;;;;;;;12.57;11.27;;;;;;;17.98;88.26;100147.75;6312283;22;20089;-71
2021/06/09 03:42:53;;;;;;;12.23;11.10;;;;;;;17.95;88.03;100149.38;6312242;22;20003;-72
2021/06/09 03:45:29;;;;;;;12.90;11.65;;;;;;;17.96;88.16;100150.97;6311530;22;20013;-69
2021/06/09 03:48:00;;;;;;;24.23;19.33;;;;;;;17.96;87.90;100155.81;6313086;22;20327;-72
2021/06/09 03:50:27;;;;;;;46.28;35.83;;;;;;;17.96;87.40;100150.19;6313619;22;20007;-71
2021/06/09 03:53:02;;;;;;;28.65;25.65;;;;;;;17.96;87.55;100153.00;6313583;22;20007;-71
2021/06/09 03:55:31;;;;;;;21.02;18.92;;;;;;;18.04;87.59;100148.88;6313476;22;20017;-73
2021/06/09 03:58:01;;;;;;;135.77;118.93;;;;;;;17.94;86.95;100166.66;6313377;22;20010;-71
2021/06/09 04:00:31;;;;;;;50.33;44.85;;;;;;;18.01;87.52;100144.09;6313411;22;20002;-73
2021/06/09 04:02:58;;;;;;;40.90;35.45;;;;;;;18.01;87.16;100144.91;6313873;22;20010;-72
2021/06/09 04:05:30;;;;;;;29.75;26.83;;;;;;;18.01;86.97;100127.22;6287900;22;20060;-70
2021/06/09 04:08:00;;;;;;;25.98;23.48;;;;;;;18.04;85.67;100132.78;6314091;22;20011;-70
2021/06/09 04:10:27;;;;;;;21.27;19.20;;;;;;;17.99;84.87;100135.25;6341010;22;20078;-73
2021/06/09 04:12:56;;;;;;;17.98;16.38;;;;;;;18.03;84.75;100144.47;6314049;22;20328;-71
2021/06/09 04:15:26;;;;;;;25.67;23.08;;;;;;;18.09;83.90;100134.38;6340570;22;20003;-71
2021/06/09 04:17:53;;;;;;;14.35;13.00;;;;;;;18.22;83.73;100134.69;6313840;22;20315;-70
2021/06/09 04:20:25;;;;;;;10.40;9.40;;;;;;;18.30;83.28;100131.38;6314287;22;20339;-71
2021/06/09 04:22:51;;;;;;;9.13;8.40;;;;;;;18.33;82.11;100133.34;6335670;22;20446;-71
2021/06/09 04:25:19;;;;;;;12.32;11.07;;;;;;;18.39;81.75;100127.28;6339190;22;20041;-72
2021/06/09 04:27:49;;;;;;;9.18;8.45;;;;;;;18.41;80.63;100122.81;6340224;22;20040;-73
2021/06/09 04:30:16;;;;;;;7.80;7.20;;;;;;;18.56;80.62;100129.09;6339513;22;20007;-71
2021/06/09 04:32:58;;;;;;;7.25;6.75;;;;;;;18.55;80.14;100125.50;6339843;22;20006;-72
2021/06/09 04:35:27;;;;;;;6.97;6.35;;;;;;;18.58;80.24;100121.03;6339137;22;20063;-72
2021/06/09 04:37:58;;;;;;;13.70;6.57;;;;;;;18.64;79.52;100124.97;6339073;22;20002;-71
2021/06/09 04:40:26;;;;;;;7.05;6.38;;;;;;;18.72;79.25;100128.56;6340785;22;20010;-73
2021/06/09 04:42:56;;;;;;;6.57;5.97;;;;;;;18.79;79.28;100132.09;6338741;22;20014;-70
2021/06/09 04:45:24;;;;;;;6.28;5.78;;;;;;;18.82;78.76;100139.72;6339026;22;20065;-71
2021/06/09 04:47:53;;;;;;;6.40;5.88;;;;;;;18.93;78.68;100133.94;6339040;22;20003;-72
2021/06/09 04:50:29;;;;;;;5.97;5.47;;;;;;;19.00;78.37;100135.88;6338989;22;20003;-73
2021/06/09 04:53:10;;;;;;;5.60;5.00;;;;;;;19.09;78.43;100136.16;6339559;22;20314;-71
2021/06/09 04:55:40;;;;;;;5.53;5.10;;;;;;;19.21;77.72;100135.59;6338915;22;20439;-72
2021/06/09 04:58:05;;;;;;;5.25;4.85;;;;;;;19.36;76.98;100139.03;6339501;22;20323;-70
2021/06/09 05:00:34;;;;;;;5.93;5.53;;;;;;;19.48;76.55;100137.66;6338560;22;19999;-71
2021/06/09 05:03:01;;;;;;;6.35;5.85;;;;;;;19.61;75.78;100138.72;6338884;22;20098;-70
2021/06/09 05:05:29;;;;;;;6.78;6.13;;;;;;;19.69;75.64;100137.38;6338783;22;20094;-71
2021/06/09 05:07:58;;;;;;;5.78;5.38;;;;;;;19.79;75.30;100136.41;6338767;22;20013;-70
2021/06/09 05:10:25;;;;;;;5.82;5.35;;;;;;;19.82;75.05;100135.56;6339707;22;20038;-71
2021/06/09 05:12:55;;;;;;;5.28;4.88;;;;;;;19.93;74.81;100135.41;6312887;22;20003;-71
2021/06/09 05:15:30;;;;;;;4.88;4.45;;;;;;;19.93;74.72;100134.59;6338693;22;20007;-72
2021/06/09 05:18:04;;;;;;;5.68;5.28;;;;;;;19.87;73.38;100137.91;6339027;22;20233;-71
2021/06/09 05:20:36;;;;;;;5.05;4.65;;;;;;;19.87;73.49;100132.28;6338262;22;20003;-71
2021/06/09 05:23:08;;;;;;;5.97;5.57;;;;;;;20.05;73.93;100129.16;6337993;22;20438;-72
2021/06/09 05:25:36;;;;;;;5.95;5.30;;;;;;;20.04;74.77;100138.84;6338918;22;20064;-70
2021/06/09 05:28:06;;;;;;;6.53;5.90;;;;;;;20.05;75.48;100142.47;6338547;22;20013;-72
2021/06/09 05:30:37;;;;;;;5.80;5.25;;;;;;;19.99;75.83;100149.84;6338541;22;20042;-72
2021/06/09 05:33:06;;;;;;;5.97;5.53;;;;;;;20.02;75.60;100143.31;6338416;22;20007;-70
2021/06/09 05:35:32;;;;;;;6.40;5.82;;;;;;;20.12;74.89;100156.47;6338330;22;20007;-70
2021/06/09 05:37:59;;;;;;;6.18;5.43;;;;;;;20.12;75.05;100143.13;6339950;22;20031;-72
2021/06/09 05:40:25;;;;;;;5.20;4.80;;;;;;;20.11;75.38;100140.75;6338409;22;20010;-72
2021/06/09 05:42:51;;;;;;;6.88;5.18;;;;;;;20.20;75.11;100145.84;6338344;22;20037;-73
2021/06/09 05:45:33;;;;;;;5.57;5.18;;;;;;;20.29;75.01;100144.06;6338720;22;20423;-73
2021/06/09 05:48:00;;;;;;;10.80;6.25;;;;;;;20.40;75.20;100146.72;6338409;22;20056;-74
2021/06/09 05:50:32;;;;;;;5.88;5.38;;;;;;;20.50;74.76;100139.28;6338412;22;20013;-74
2021/06/09 05:53:04;;;;;;;5.53;5.13;;;;;;;20.56;73.51;100138.38;6338202;22;20068;-72
2021/06/09 05:55:34;;;;;;;5.22;4.82;;;;;;;20.64;73.13;100128.50;6338994;22;20086;-72
2021/06/09 05:58:03;;;;;;;5.35;4.97;;;;;;;20.73;72.65;100136.44;6338913;22;20373;-71
2021/06/09 06:00:33;;;;;;;6.57;4.55;;;;;;;20.81;71.67;100135.06;6339023;22;20011;-74
2021/06/09 06:03:03;;;;;;;4.40;4.13;;;;;;;20.91;70.43;100131.22;6340224;22;20007;-71
2021/06/09 06:05:35;;;;;;;7.57;5.60;;;;;;;21.06;68.59;100131.72;6338229;22;20006;-72
2021/06/09 06:08:07;;;;;;;10.05;8.98;;;;;;;21.26;66.82;100134.53;6333477;22;20041;-72
2021/06/09 06:10:32;;;;;;;11.15;7.10;;;;;;;21.48;66.53;100132.06;6338192;22;20434;-73
2021/06/09 06:13:02;;;;;;;5.50;5.00;;;;;;;21.75;65.05;100136.72;6337671;22;20034;-73
2021/06/09 06:15:29;;;;;;;5.47;4.97;;;;;;;22.06;64.03;100137.19;6338169;22;20015;-71
2021/06/09 06:17:55;;;;;;;5.70;5.13;;;;;;;23.27;60.66;100136.75;6337905;22;20003;-74
2021/06/09 06:20:25;;;;;;;21.33;19.20;;;;;;;23.98;56.29;100139.44;6338250;22;20007;-71
2021/06/09 06:22:53;;;;;;;11.15;10.05;;;;;;;24.30;54.51;100142.00;6337104;22;20144;-72
2021/06/09 06:25:24;;;;;;;7.93;6.07;;;;;;;24.62;53.53;100128.75;6338146;22;20014;-73
2021/06/09 06:27:52;;;;;;;5.68;5.28;;;;;;;24.78;51.11;100136.28;6338281;22;20486;-72
2021/06/09 06:30:23;;;;;;;5.32;4.93;;;;;;;25.90;48.91;100134.47;6337998;22;20087;-72
2021/06/09 06:32:54;;;;;;;6.63;4.38;;;;;;;26.14;48.09;100140.38;6312171;22;20017;-72
2021/06/09 06:35:26;;;;;;;3.95;3.65;;;;;;;26.61;47.33;100133.53;6312295;22;20010;-73
2021/06/09 06:37:55;;;;;;;4.90;4.32;;;;;;;26.08;48.86;100125.97;6337960;22;20011;-72
2021/06/09 06:40:24;;;;;;;4.32;4.00;;;;;;;25.50;48.36;100140.91;6338082;22;20300;-73
2021/06/09 06:42:51;;;;;;;6.00;4.53;;;;;;;24.92;49.60;100138.59;6336963;22;20423;-73
2021/06/09 06:45:21;;;;;;;4.30;4.00;;;;;;;24.92;49.62;100141.44;6337789;22;20018;-73
2021/06/09 06:47:52;;;;;;;4.55;4.15;;;;;;;24.88;49.25;100137.97;6339350;22;20002;-73
2021/06/09 06:50:23;;;;;;;5.22;4.15;;;;;;;24.30;51.53;100144.03;6337513;22;20014;-73
2021/06/09 06:52:50;;;;;;;4.25;3.90;;;;;;;24.34;51.83;100141.84;6337901;22;20480;-71
2021/06/09 06:55:21;;;;;;;12.30;4.10;;;;;;;24.49;51.76;100145.81;6337683;22;20007;-72
2021/06/09 06:57:49;;;;;;;4.10;3.85;;;;;;;24.30;50.87;100149.72;6337639;22;20010;-80
2021/06/09 07:00:17;;;;;;;4.78;3.63;;;;;;;24.10;51.81;100147.16;6312643;22;20030;-82
2021/06/09 07:02:54;;;;;;;4.30;4.00;;;;;;;23.61;54.18;100147.47;6337297;22;20010;-75
2021/06/09 07:05:21;;;;;;;4.90;4.50;;;;;;;23.27;55.00;100146.03;6337354;22;20010;-73
2021/06/09 07:07:56;;;;;;;4.38;3.83;;;;;;;23.04;55.46;100148.38;6337308;22;20090;-73
2021/06/09 07:10:25;;;;;;;4.55;4.15;;;;;;;22.81;54.86;100153.03;6337432;22;20003;-72
2021/06/09 07:13:01;;;;;;;4.15;3.83;;;;;;;22.63;55.04;100156.34;6338111;22;20007;-74
2021/06/09 07:15:32;;;;;;;8.48;4.70;;;;;;;22.46;57.30;100164.09;6337958;22;20011;-73
2021/06/09 07:18:01;;;;;;;5.25;4.85;;;;;;;22.24;57.01;100151.72;6312426;22;20025;-72
2021/06/09 07:20:29;;;;;;;7.45;5.15;;;;;;;22.32;56.15;100158.00;6311294;22;20017;-74
2021/06/09 07:22:59;;;;;;;5.97;4.85;;;;;;;22.29;56.40;100153.22;6311850;22;20399;-72
2021/06/09 07:25:36;;;;;;;9.25;5.50;;;;;;;22.29;56.73;100158.88;6335364;22;20010;-73
2021/06/09 07:28:09;;;;;;;7.28;4.40;;;;;;;22.64;56.28;100162.84;6340756;22;20010;-73
2021/06/09 07:30:39;;;;;;;4.53;4.18;;;;;;;22.58;56.05;100167.44;6340214;22;20076;-72
2021/06/09 07:37:02;;;;;;;4.78;4.30;;;;;;;22.65;56.41;100170.09;6316285;22;20089;-73
2021/06/09 07:42:35;;;;;;;4.75;4.28;;;;;;;23.06;56.20;100162.91;6328293;22;20133;-71
2021/06/09 07:45:08;;;;;;;6.10;5.47;;;;;;;23.06;56.24;100171.41;6339688;22;20033;-72
2021/06/09 07:48:13;;;;;;;4.28;3.97;;;;;;;23.04;55.17;100173.91;6339548;22;20007;-73
2021/06/09 07:50:49;;;;;;;4.88;4.32;;;;;;;23.17;54.81;100174.75;6300447;22;20117;-72
2021/06/09 07:53:17;;;;;;;4.75;3.78;;;;;;;23.19;54.21;100175.09;6340885;22;20483;-74
2021/06/09 07:55:46;;;;;;;9.95;4.35;;;;;;;23.29;53.17;100182.50;6340639;22;20006;-72
2021/06/09 07:58:18;;;;;;;4.30;4.00;;;;;;;23.50;53.17;100173.34;6342210;22;20063;-72
2021/06/09 08:00:53;;;;;;;4.53;4.13;;;;;;;23.66;52.41;100174.56;6340386;22;20010;-74
2021/06/09 08:03:22;;;;;;;5.07;4.18;;;;;;;23.67;51.53;100162.72;6340393;22;20002;-75
2021/06/09 08:05:51;;;;;;;4.70;4.10;;;;;;;23.90;50.76;100172.16;6341050;22;20006;-74
2021/06/09 08:08:17;;;;;;;4.40;3.67;;;;;;;24.30;50.07;100178.97;6340269;22;20030;-73
2021/06/09 08:10:46;;;;;;;4.28;3.90;;;;;;;24.55;49.89;100174.47;6314267;22;20011;-72
2021/06/09 08:13:15;;;;;;;5.15;4.25;;;;;;;24.80;49.61;100185.00;6340722;22;20026;-74
2021/06/09 08:15:45;;;;;;;4.38;3.97;;;;;;;24.98;49.42;100192.88;6340497;22;20469;-72
2021/06/09 08:18:14;;;;;;;10.32;4.78;;;;;;;25.27;48.85;100187.75;6340799;22;20081;-73
2021/06/09 08:20:46;;;;;;;7.25;4.32;;;;;;;25.40;47.83;100193.38;6340548;22;20010;-73
2021/06/09 08:23:17;;;;;;;4.80;4.40;;;;;;;25.62;47.53;100196.22;6339900;22;20038;-73
2021/06/09 08:25:45;;;;;;;3.75;3.45;;;;;;;25.89;46.08;100197.63;6341108;22;20038;-74
2021/06/09 08:28:20;;;;;;;6.30;3.95;;;;;;;25.63;45.68;100205.56;6340435;22;20030;-74
2021/06/09 08:30:45;;;;;;;3.50;3.20;;;;;;;26.06;44.97;100211.19;6339142;22;20064;-74
2021/06/09 08:33:11;;;;;;;3.92;3.33;;;;;;;26.31;44.43;100207.31;6340686;22;20003;-72
2021/06/09 08:35:39;;;;;;;7.85;3.88;;;;;;;26.86;42.76;100209.50;6338862;22;20011;-74
2021/06/09 08:38:11;;;;;;;3.45;3.15;;;;;;;27.04;41.87;100200.91;6338865;22;20015;-73
2021/06/09 08:40:37;;;;;;;3.67;3.35;;;;;;;27.06;41.88;100209.00;6338841;22;20101;-74
2021/06/09 08:43:07;;;;;;;3.10;2.90;;;;;;;27.03;41.60;100207.91;6339167;22;20007;-74
2021/06/09 08:45:38;;;;;;;3.83;3.20;;;;;;;27.29;41.66;100210.47;6339558;22;20006;-74
2021/06/09 08:48:05;;;;;;;3.95;3.30;;;;;;;27.27;40.99;100218.69;6339275;22;20394;-73
2021/06/09 08:50:32;;;;;;;5.60;3.78;;;;;;;27.58;41.03;100215.66;6339569;22;20011;-75
2021/06/09 08:53:02;;;;;;;3.20;2.90;;;;;;;27.67;40.76;100215.63;6339228;22;20081;-75
2021/06/09 08:55:30;;;;;;;3.92;3.40;;;;;;;27.63;41.18;100220.72;6338770;22;20427;-74
2021/06/09 08:58:04;;;;;;;4.38;4.03;;;;;;;27.74;41.55;100214.53;6339570;22;20307;-74
2021/06/09 09:00:32;;;;;;;3.30;3.10;;;;;;;27.04;42.04;100217.25;6338682;22;20038;-73
2021/06/09 09:03:04;;;;;;;3.47;2.88;;;;;;;27.29;40.92;100213.31;6338814;22;20006;-73
2021/06/09 09:05:32;;;;;;;3.08;2.88;;;;;;;27.65;40.82;100210.41;6339495;22;20015;-74
2021/06/09 09:08:05;;;;;;;5.45;3.10;;;;;;;27.89;40.34;100212.56;6338718;22;20082;-72
2021/06/09 09:10:34;;;;;;;4.55;3.22;;;;;;;27.55;41.02;100211.69;6339377;22;20438;-74
2021/06/09 09:13:00;;;;;;;2.85;2.65;;;;;;;27.61;40.26;100217.56;6338648;22;20007;-73
2021/06/09 09:15:32;;;;;;;4.30;3.17;;;;;;;27.52;42.58;100214.72;6339092;22;20117;-74
2021/06/09 09:18:03;;;;;;;3.05;2.88;;;;;;;28.15;41.32;100212.94;6333798;22;20007;-76
2021/06/09 09:20:37;;;;;;;3.95;3.65;;;;;;;28.09;40.58;100181.34;6313660;22;20037;-73
2021/06/09 09:23:24;;;;;;;3.53;3.30;;;;;;;28.07;41.86;100206.78;6338244;22;20022;-73
2021/06/09 09:25:53;;;;;;;3.03;2.90;;;;;;;28.04;41.48;100202.03;6338613;22;20003;-73
2021/06/09 09:28:33;;;;;;;3.15;2.95;;;;;;;28.65;40.91;100199.78;6339173;22;20006;-72
2021/06/09 09:31:10;;;;;;;3.45;3.15;;;;;;;29.44;39.41;100207.91;6339543;22;20006;-72
2021/06/09 09:33:36;;;;;;;5.38;3.28;;;;;;;30.23;38.40;100203.53;6338137;22;20013;-73
2021/06/09 09:36:26;;;;;;;4.10;3.70;;;;;;;31.05;37.31;100204.38;6338487;22;20057;-74
2021/06/09 09:38:58;;;;;;;7.50;3.90;;;;;;;31.35;36.90;100201.34;6339174;22;20318;-73
2021/06/09 09:41:31;;;;;;;4.40;3.55;;;;;;;31.16;35.61;100195.91;6339298;22;20010;-73
2021/06/09 09:44:08;;;;;;;3.38;3.08;;;;;;;30.83;35.14;100204.13;6338834;22;20308;-73
2021/06/09 09:46:50;;;;;;;2.97;2.78;;;;;;;31.36;34.44;100197.19;6340082;22;20052;-72
2021/06/09 09:49:19;;;;;;;3.15;2.95;;;;;;;31.77;33.33;100215.88;6338146;22;20002;-74
2021/06/09 09:51:46;;;;;;;3.20;2.90;;;;;;;31.60;32.03;100202.66;6338383;22;20011;-74
2021/06/09 09:54:13;;;;;;;2.70;2.50;;;;;;;31.93;31.90;100207.94;6338086;22;20002;-73
2021/06/09 09:56:40;;;;;;;2.85;2.65;;;;;;;32.25;31.35;100211.56;6338213;22;20098;-72
2021/06/09 09:59:10;;;;;;;4.53;3.08;;;;;;;31.84;31.17;100213.84;6338871;22;20108;-73
2021/06/09 10:01:41;;;;;;;2.28;2.03;;;;;;;32.26;30.57;100213.13;6338885;22;20007;-71
2021/06/09 10:04:08;;;;;;;3.00;2.67;;;;;;;32.69;29.90;100211.06;6338499;22;20013;-73
2021/06/09 10:06:46;;;;;;;4.35;3.00;;;;;;;31.77;30.77;100197.84;6338307;22;20013;-73
2021/06/09 10:09:16;;;;;;;3.75;3.40;;;;;;;30.95;33.17;100200.13;6338610;22;20384;-75
2021/06/09 10:11:48;;;;;;;2.67;2.47;;;;;;;31.87;31.90;100199.25;6339067;22;20007;-72
2021/06/09 10:14:39;;;;;;;3.83;2.70;;;;;;;32.25;30.69;100200.84;6338772;22;20366;-74
2021/06/09 10:17:18;;;;;;;2.45;2.28;;;;;;;31.99;31.12;100195.16;6339476;22;19998;-73
2021/06/09 10:19:56;;;;;;;3.55;2.47;;;;;;;31.96;30.86;100195.38;6338544;22;20006;-73
2021/06/09 10:22:25;;;;;;;4.68;2.92;;;;;;;31.74;31.08;100188.13;6337634;22;20022;-73
2021/06/09 10:24:56;;;;;;;2.50;2.40;;;;;;;31.03;31.55;100189.75;6338081;22;20032;-74
2021/06/09 10:27:48;;;;;;;2.97;2.72;;;;;;;30.64;32.75;100201.53;6339028;22;20007;-73
2021/06/09 10:30:24;;;;;;;2.80;2.60;;;;;;;31.12;32.08;100186.72;6338107;22;20026;-74
2021/06/09 10:33:02;;;;;;;3.03;2.83;;;;;;;30.47;33.04;100191.91;6339059;22;20034;-72
2021/06/09 10:35:32;;;;;;;8.88;3.08;;;;;;;30.21;33.62;100189.69;6338336;22;20002;-71
2021/06/09 10:38:01;;;;;;;3.17;2.97;;;;;;;30.11;34.66;100178.81;6337858;22;20136;-73
2021/06/09 10:40:29;;;;;;;4.30;3.67;;;;;;;29.42;36.02;100178.16;6337960;22;20013;-71
2021/06/09 10:42:59;;;;;;;3.45;3.10;;;;;;;28.99;37.38;100163.31;6338044;22;20003;-73
2021/06/09 10:45:26;;;;;;;3.75;3.22;;;;;;;28.39;40.12;100141.47;6338033;22;20013;-71
2021/06/09 10:47:57;;;;;;;4.25;3.45;;;;;;;29.31;38.75;100161.56;6337930;22;20006;-78
2021/06/09 10:50:26;;;;;;;3.55;3.35;;;;;;;30.20;36.52;100165.16;6338349;22;20014;-76
2021/06/09 10:52:54;;;;;;;3.95;3.55;;;;;;;30.82;35.53;100170.94;6337944;22;20002;-74
2021/06/09 10:55:26;;;;;;;6.53;4.07;;;;;;;31.00;35.04;100167.75;6337886;22;20017;-78
2021/06/09 10:57:52;;;;;;;4.90;4.05;;;;;;;30.90;36.02;100152.00;6337452;22;19998;-77
2021/06/09 11:00:19;;;;;;;6.13;4.72;;;;;;;30.67;37.23;100150.91;6337974;22;20010;-75
2021/06/09 11:02:47;;;;;;;7.60;5.57;;;;;;;29.47;39.15;100158.22;6337936;22;20006;-80
2021/06/09 11:05:16;;;;;;;5.10;4.60;;;;;;;29.73;39.91;100155.53;6337939;22;20003;-79
2021/06/09 11:07:45;;;;;;;5.00;4.60;;;;;;;29.54;40.51;100148.44;6338778;22;20036;-74
2021/06/09 11:10:16;;;;;;;4.32;3.40;;;;;;;29.68;38.52;100150.50;6339459;22;20002;-81
2021/06/09 11:12:49;;;;;;;4.68;4.38;;;;;;;29.71;37.48;100152.38;6338680;22;20010;-79
2021/06/09 11:15:24;;;;;;;3.53;3.22;;;;;;;29.30;37.74;100145.66;6338433;22;20097;-77
2021/06/09 11:17:54;;;;;;;5.38;4.95;;;;;;;29.16;40.16;100138.63;6337561;22;20086;-78
2021/06/09 11:20:28;;;;;;;8.55;5.40;;;;;;;29.60;40.13;100149.31;6338901;22;20480;-79
2021/06/09 11:22:56;;;;;;;6.38;5.85;;;;;;;30.22;40.39;100148.22;6336932;22;20010;-79
2021/06/09 11:25:29;;;;;;;7.45;6.30;;;;;;;29.45;42.27;100143.56;6337763;22;20029;-78
2021/06/09 11:28:09;;;;;;;8.30;6.60;;;;;;;28.84;43.32;100136.69;6337640;22;20003;-75
2021/06/09 11:30:37;;;;;;;7.22;5.85;;;;;;;29.64;41.93;100126.19;6335288;22;20006;-78
2021/06/09 11:33:05;;;;;;;6.32;5.82;;;;;;;30.02;40.02;100123.13;6337521;22;20013;-75
2021/06/09 11:35:48;;;;;;;5.82;5.30;;;;;;;29.87;40.04;100124.47;6339066;22;20003;-76
2021/06/09 11:38:16;;;;;;;6.70;5.95;;;;;;;30.02;40.33;100117.41;6337484;22;20007;-79
2021/06/09 11:40:59;;;;;;;6.90;6.30;;;;;;;29.34;41.53;100117.56;6336900;22;20006;-75
2021/06/09 11:43:38;;;;;;;6.70;6.05;;;;;;;29.32;41.21;100116.50;6336751;22;20010;-78
2021/06/09 11:46:30;;;;;;;9.02;4.82;;;;;;;29.74;40.50;100105.50;6337562;22;20035;-77
2021/06/09 11:48:59;;;;;;;4.93;4.63;;;;;;;29.59;40.36;100106.81;6316902;22;20450;-79
2021/06/09 11:51:32;;;;;;;6.53;5.30;;;;;;;29.33;40.41;100109.47;6337439;22;20006;-77